Flight Track Log - Related Links

Times and Time Zones

All times are in EDT time to prevent confusion due to time zone crossing. See the AAL906 flight status page for this flight to view local times or setup timezone preferences in your user account.

Time Position Orientation Groundspeed Altitude Reporting Facility
EDT Latitude Longitude Course Direction KTS MPH feet Rate Location/Type
Sat 08:32:42 PM -23.4230 -46.4410 71° East 180 207 3,000  Level FlightAware ADS-B
Sat 08:32:52 PM -23.4210 -46.4330 75° East 182 209 3,300 1,920 Climbing FlightAware ADS-B
Sat 08:33:07 PM -23.4200 -46.4220 84° East 178 205 3,800 1,333 Climbing FlightAware ADS-B
Sat 08:33:37 PM -23.4370 -46.3990 129° Southeast 204 235 4,300 1,500 Climbing FlightAware ADS-B
Sat 08:34:07 PM -23.4640 -46.4100 200° South 208 239 5,300 2,100 Climbing FlightAware ADS-B
Sat 08:34:17 PM -23.4690 -46.4200 241° Southwest 208 239 5,700 1,800 Climbing FlightAware ADS-B
Sat 08:34:47 PM -23.4800 -46.4510 249° West 216 249 6,500 1,392 Climbing FlightAware ADS-B
Sat 08:36:22 PM -23.5490 -46.5450 231° Southwest 283 326 8,600 1,422 Climbing FlightAware ADS-B
Sat 08:37:02 PM -23.5620 -46.5910 253° West 286 329 9,700 1,584 Climbing FlightAware ADS-B
Sat 08:38:27 PM -23.5510 -46.7390 275° West 350 403 11,900 1,776 Climbing FlightAware ADS-B
Sat 08:39:07 PM -23.5470 -46.8080 274° West 362 417 13,400 2,215 Climbing FlightAware ADS-B
Sat 08:40:37 PM -23.5360 -46.9770 274° West 385 443 16,700 2,138 Climbing FlightAware ADS-B
Sat 08:41:47 PM -23.5240 -47.1150 275° West 400 460 19,100 2,016 Climbing FlightAware ADS-B
Sat 08:42:42 PM -23.4810 -47.2150 295° West 407 468 20,900 1,935 Climbing FlightAware ADS-B
Sat 08:44:22 PM -23.3720 -47.3860 305° West 423 487 24,100 1,800 Climbing FlightAware ADS-B
Sat 08:45:02 PM -23.3300 -47.4570 303° West 425 489 25,100 1,500 Climbing FlightAware ADS-B
Sat 08:45:42 PM -23.2850 -47.5310 303° West 438 504 26,100 1,482 Climbing FlightAware ADS-B
Sat 08:46:27 PM -23.2350 -47.6140 303° West 443 510 27,200 1,341 Climbing FlightAware ADS-B
Sat 08:47:07 PM -23.1940 -47.6810 304° West 445 512 28,000 1,320 Climbing FlightAware ADS-B
Sat 08:48:07 PM -23.1230 -47.7980 303° West 449 517 29,400 1,389 Climbing FlightAware ADS-B
Sat 08:48:42 PM -23.0770 -47.8720 304° West 460 529 30,200 1,200 Climbing FlightAware ADS-B
Sat 08:49:27 PM -23.0230 -47.9610 303° West 464 534 31,000 1,129 Climbing FlightAware ADS-B
Sat 08:50:07 PM -22.9720 -48.0440 304° West 471 542 31,800 1,129 Climbing FlightAware ADS-B
Sat 08:50:52 PM -22.9190 -48.1300 304° West 474 545 32,600 1,000 Climbing FlightAware ADS-B
Sat 08:51:37 PM -22.8640 -48.2210 303° West 478 550 33,300 988 Climbing FlightAware ADS-B
Sat 08:52:17 PM -22.8140 -48.3020 304° West 481 554 34,000 1,280 Climbing FlightAware ADS-B
Sat 08:52:52 PM -22.7730 -48.3690 304° West 473 544 34,900 1,412 Climbing FlightAware ADS-B
Sat 08:53:42 PM -22.7130 -48.4660 304° West 467 537 36,000 733 Climbing FlightAware ADS-B
Sat 08:54:22 PM -22.6640 -48.5440 304° West 463 533 36,000  Level FlightAware ADS-B
Sat 08:55:02 PM -22.6160 -48.6220 304° West 462 532 36,000  Level FlightAware ADS-B
Sat 08:55:47 PM -22.5610 -48.7110 304° West 462 532 36,000  Level FlightAware ADS-B
Sat 08:56:27 PM -22.5140 -48.7860 304° West 462 532 36,000  Level FlightAware ADS-B
Sat 08:57:07 PM -22.4660 -48.8630 304° West 462 532 36,000  Level FlightAware ADS-B
Sat 08:57:52 PM -22.4140 -48.9470 304° West 461 531 36,000  Level FlightAware ADS-B
Sat 08:58:32 PM -22.3660 -49.0230 304° West 461 531 36,000  Level FlightAware ADS-B
Sat 08:59:17 PM -22.3100 -49.1090 305° West 463 533 36,000  Level FlightAware ADS-B
Sat 08:59:57 PM -22.2510 -49.1790 312° West 466 536 36,000  Level FlightAware ADS-B
Sat 09:00:42 PM -22.1850 -49.2520 314° West 466 536 36,000  Level FlightAware ADS-B
Sat 09:01:22 PM -22.1240 -49.3200 314° West 466 536 36,000  Level FlightAware ADS-B
Sat 09:02:02 PM -22.0660 -49.3850 314° West 466 536 36,000  Level FlightAware ADS-B
Sat 09:02:47 PM -21.9970 -49.4620 314° West 466 536 36,000  Level FlightAware ADS-B
Sat 09:03:27 PM -21.9360 -49.5300 314° West 465 535 36,000  Level FlightAware ADS-B
Sat 09:04:12 PM -21.8690 -49.6040 314° West 464 534 36,000  Level FlightAware ADS-B
Sat 09:04:52 PM -21.8090 -49.6700 314° West 463 533 36,000  Level FlightAware ADS-B
Sat 09:05:32 PM -21.7490 -49.7370 314° West 462 532 36,000  Level FlightAware ADS-B
Sat 09:06:17 PM -21.6840 -49.8090 314° West 461 531 36,000  Level FlightAware ADS-B
Sat 09:06:57 PM -21.6250 -49.8740 314° West 460 529 36,000  Level FlightAware ADS-B
Sat 09:07:42 PM -21.5560 -49.9500 314° West 459 528 36,000  Level FlightAware ADS-B
Sat 09:08:22 PM -21.4980 -50.0150 314° West 459 528 36,000  Level FlightAware ADS-B
Sat 09:09:02 PM -21.4380 -50.0800 315° West 459 528 36,000  Level FlightAware ADS-B
Sat 09:09:47 PM -21.3730 -50.1530 314° West 460 529 36,000  Level FlightAware ADS-B
Sat 09:10:27 PM -21.3150 -50.2170 314° West 460 529 36,000  Level FlightAware ADS-B
Sat 09:11:12 PM -21.2470 -50.2930 314° West 460 529 36,000  Level FlightAware ADS-B
Sat 09:11:52 PM -21.1890 -50.3570 314° West 459 528 36,000  Level FlightAware ADS-B
Sat 09:12:32 PM -21.1300 -50.4230 314° West 459 528 36,000  Level FlightAware ADS-B
Sat 09:13:17 PM -21.0630 -50.4970 314° West 459 528 36,000  Level FlightAware ADS-B
Sat 09:13:57 PM -21.0030 -50.5630 314° West 459 528 36,000  Level FlightAware ADS-B
Sat 09:14:32 PM -20.9540 -50.6170 314° West 460 529 36,000  Level FlightAware ADS-B
Sat 09:15:22 PM -20.8760 -50.7030 314° West 460 529 36,000  Level FlightAware ADS-B
Sat 09:16:17 PM -20.8010 -50.7850 314° West 461 531 36,000  Level FlightAware ADS-B
Sat 09:16:57 PM -20.7510 -50.8410 314° West 461 531 36,000  Level FlightAware ADS-B
Sat 09:17:42 PM -20.6650 -50.9290 316° Northwest 463 533 36,000  Level FlightAware ADS-B
Sat 09:18:22 PM -20.6040 -50.9940 315° West 463 533 36,000  Level FlightAware ADS-B
Sat 09:19:07 PM -20.5380 -51.0640 315° West 465 535 36,000  Level FlightAware ADS-B
Sat 09:19:42 PM -20.4910 -51.1170 313° West 465 535 36,000  Level FlightAware ADS-B
Sat 09:20:22 PM -20.4270 -51.1820 316° Northwest 466 536 36,000  Level FlightAware ADS-B
Sat 09:21:12 PM -20.3630 -51.2510 315° West 466 536 36,000  Level FlightAware ADS-B
Sat 09:21:52 PM -20.2640 -51.3130 330° Northwest 478 550 36,000  Level FlightAware ADS-B
Sat 09:22:37 PM -20.1790 -51.3660 330° Northwest 481 554 36,000  Level FlightAware ADS-B
Sat 09:23:17 PM -20.1080 -51.4110 329° Northwest 481 554 36,000  Level FlightAware ADS-B
Sat 09:23:57 PM -20.0430 -51.4530 329° Northwest 481 554 36,000  Level FlightAware ADS-B
Sat 09:24:37 PM -19.9780 -51.4940 329° Northwest 481 554 36,000  Level FlightAware ADS-B
Sat 09:25:17 PM -19.9140 -51.5360 328° Northwest 481 554 36,000  Level FlightAware ADS-B
Sat 09:26:07 PM -19.8330 -51.5870 329° Northwest 481 554 36,000  Level FlightAware ADS-B
Sat 09:26:47 PM -19.7680 -51.6290 329° Northwest 481 554 36,000  Level FlightAware ADS-B
Sat 09:27:27 PM -19.7030 -51.6700 329° Northwest 481 554 36,000  Level FlightAware ADS-B
Sat 09:28:07 PM -19.6380 -51.7120 329° Northwest 481 554 36,000  Level FlightAware ADS-B
Sat 09:28:47 PM -19.5730 -51.7530 329° Northwest 481 554 36,000  Level FlightAware ADS-B
Sat 09:29:37 PM -19.4920 -51.8050 329° Northwest 481 554 36,000  Level FlightAware ADS-B
Sat 09:30:17 PM -19.4270 -51.8460 329° Northwest 481 554 36,000  Level FlightAware ADS-B
Sat 09:30:57 PM -19.3620 -51.8870 329° Northwest 481 554 36,000  Level FlightAware ADS-B
Sat 09:31:37 PM -19.2970 -51.9290 329° Northwest 481 554 36,000  Level FlightAware ADS-B
Sat 09:32:17 PM -19.2330 -51.9700 329° Northwest 481 554 36,000 11 Level FlightAware ADS-B
Sat 09:34:00 PM -19.0509 -52.0924 328° Northwest  Level Estimated
Sat 09:35:00 PM -18.9447 -52.1637 328° Northwest  Level Estimated
Sat 09:36:00 PM -18.8386 -52.2348 328° Northwest  Level Estimated
Sat 09:37:00 PM -18.7324 -52.3058 328° Northwest  Level Estimated
Sat 09:38:00 PM -18.6262 -52.3767 328° Northwest  Level Estimated
Sat 09:39:00 PM -18.5200 -52.4476 328° Northwest  Level Estimated
Sat 09:40:00 PM -18.4137 -52.5183 328° Northwest  Level Estimated
Sat 09:41:00 PM -18.3074 -52.5890 328° Northwest  Level Estimated
Sat 09:42:00 PM -18.2011 -52.6596 328° Northwest  Level Estimated
Sat 09:43:00 PM -18.0947 -52.7301 328° Northwest  Level Estimated
Sat 09:44:00 PM -17.9884 -52.8005 328° Northwest  Level Estimated
Sat 09:45:00 PM -17.8820 -52.8708 328° Northwest  Level Estimated
Sat 09:46:00 PM -17.7756 -52.9411 328° Northwest  Level Estimated
Sat 09:47:00 PM -17.6691 -53.0112 328° Northwest  Level Estimated
Sat 09:48:00 PM -17.5627 -53.0813 328° Northwest  Level Estimated
Sat 09:49:00 PM -17.4562 -53.1513 328° Northwest  Level Estimated
Sat 09:50:00 PM -17.3496 -53.2212 328° Northwest  Level Estimated
Sat 09:51:00 PM -17.2431 -53.2910 328° Northwest  Level Estimated
Sat 09:52:00 PM -17.1365 -53.3608 328° Northwest  Level Estimated
Sat 09:53:00 PM -17.0299 -53.4305 328° Northwest  Level Estimated
Sat 09:54:00 PM -16.9233 -53.5001 328° Northwest  Level Estimated
Sat 09:55:00 PM -16.8167 -53.5696 328° Northwest  Level Estimated
Sat 09:56:00 PM -16.7100 -53.6390 328° Northwest  Level Estimated
Sat 09:57:00 PM -16.6033 -53.7084 328° Northwest  Level Estimated
Sat 09:58:00 PM -16.4966 -53.7776 328° Northwest  Level Estimated
Sat 09:59:00 PM -16.3899 -53.8469 328° Northwest  Level Estimated
Sat 10:00:00 PM -16.2832 -53.9160 328° Northwest  Level Estimated
Sat 10:01:00 PM -16.1764 -53.9850 328° Northwest  Level Estimated
Sat 10:02:00 PM -16.0696 -54.0540 328° Northwest  Level Estimated
Sat 10:03:00 PM -15.9628 -54.1229 328° Northwest  Level Estimated
Sat 10:04:00 PM -15.8559 -54.1917 328° Northwest  Level Estimated
Sat 10:05:00 PM -15.7491 -54.2605 328° Northwest  Level Estimated
Sat 10:06:00 PM -15.6422 -54.3292 328° Northwest  Level Estimated
Sat 10:07:00 PM -15.5353 -54.3978 328° Northwest  Level Estimated
Sat 10:08:00 PM -15.4284 -54.4663 328° Northwest  Level Estimated
Sat 10:09:00 PM -15.3214 -54.5348 328° Northwest  Level Estimated
Sat 10:10:00 PM -15.2144 -54.6032 328° Northwest  Level Estimated
Sat 10:11:00 PM -15.1074 -54.6715 328° Northwest  Level Estimated
Sat 10:12:00 PM -15.0004 -54.7398 328° Northwest  Level Estimated
Sat 10:13:00 PM -14.8934 -54.8080 328° Northwest  Level Estimated
Sat 10:14:00 PM -14.7864 -54.8761 328° Northwest  Level Estimated
Sat 10:15:00 PM -14.6793 -54.9442 328° Northwest  Level Estimated
Sat 10:16:00 PM -14.5722 -55.0122 328° Northwest  Level Estimated
Sat 10:17:00 PM -14.4651 -55.0801 328° Northwest  Level Estimated
Sat 10:18:00 PM -14.3580 -55.1480 328° Northwest  Level Estimated
Sat 10:19:00 PM -14.2508 -55.2158 328° Northwest  Level Estimated
Sat 10:20:00 PM -14.1436 -55.2835 328° Northwest  Level Estimated
Sat 10:21:00 PM -14.0365 -55.3512 329° Northwest  Level Estimated
Sat 10:22:00 PM -13.9292 -55.4188 329° Northwest  Level Estimated
Sat 10:23:00 PM -13.8220 -55.4863 329° Northwest  Level Estimated
Sat 10:24:00 PM -13.7148 -55.5538 329° Northwest  Level Estimated
Sat 10:25:00 PM -13.6075 -55.6212 329° Northwest  Level Estimated
Sat 10:26:00 PM -13.5002 -55.6886 329° Northwest  Level Estimated
Sat 10:27:00 PM -13.3930 -55.7559 329° Northwest  Level Estimated
Sat 10:28:00 PM -13.2856 -55.8231 329° Northwest  Level Estimated
Sat 10:29:00 PM -13.1783 -55.8903 329° Northwest  Level Estimated
Sat 10:30:00 PM -13.0710 -55.9574 329° Northwest  Level Estimated
Sat 10:31:00 PM -12.9636 -56.0245 329° Northwest  Level Estimated
Sat 10:32:00 PM -12.8562 -56.0915 329° Northwest  Level Estimated
Sat 10:33:00 PM -12.7488 -56.1584 329° Northwest  Level Estimated
Sat 10:34:00 PM -12.6414 -56.2253 329° Northwest  Level Estimated
Sat 10:35:00 PM -12.5340 -56.2921 329° Northwest  Level Estimated
Sat 10:36:00 PM -12.4265 -56.3589 329° Northwest  Level Estimated
Sat 10:37:00 PM -12.3190 -56.4257 329° Northwest  Level Estimated
Sat 10:38:00 PM -12.2116 -56.4923 329° Northwest  Level Estimated
Sat 10:39:00 PM -12.1041 -56.5589 329° Northwest  Level Estimated
Sat 10:40:00 PM -11.9965 -56.6255 329° Northwest  Level Estimated
Sat 10:41:00 PM -11.8890 -56.6920 329° Northwest  Level Estimated
Sat 10:42:00 PM -11.7815 -56.7585 329° Northwest  Level Estimated
Sat 10:43:00 PM -11.6739 -56.8249 329° Northwest  Level Estimated
Sat 10:44:00 PM -11.5663 -56.8912 329° Northwest  Level Estimated
Sat 10:45:00 PM -11.4587 -56.9575 329° Northwest  Level Estimated
Sat 10:46:00 PM -11.3511 -57.0238 329° Northwest  Level Estimated
Sat 10:47:00 PM -11.2435 -57.0900 329° Northwest  Level Estimated
Sat 10:48:00 PM -11.1359 -57.1561 329° Northwest  Level Estimated
Sat 10:49:00 PM -11.0282 -57.2222 329° Northwest  Level Estimated
Sat 10:50:00 PM -10.9206 -57.2883 329° Northwest  Level Estimated
Sat 10:51:00 PM -10.8129 -57.3543 329° Northwest  Level Estimated
Sat 10:52:00 PM -10.7052 -57.4202 329° Northwest  Level Estimated
Sat 10:53:00 PM -10.5975 -57.4861 329° Northwest  Level Estimated
Sat 10:54:00 PM -10.4898 -57.5520 329° Northwest  Level Estimated
Sat 10:55:00 PM -10.3820 -57.6178 329° Northwest  Level Estimated
Sat 10:56:00 PM -10.2743 -57.6836 329° Northwest  Level Estimated
Sat 10:57:00 PM -10.1665 -57.7493 329° Northwest  Level Estimated
Sat 10:58:00 PM -10.0588 -57.8150 329° Northwest  Level Estimated
Sat 10:59:00 PM -9.9510 -57.8806 329° Northwest  Level Estimated
Sat 11:00:00 PM -9.8432 -57.9462 329° Northwest  Level Estimated
Sat 11:01:00 PM -9.7356 -58.0117 329° Northwest  Level Estimated
Sat 11:02:00 PM -9.6280 -58.0770 329° Northwest  Level Estimated
Sat 11:03:00 PM -9.5204 -58.1424 329° Northwest  Level Estimated
Sat 11:04:00 PM -9.4127 -58.2077 329° Northwest  Level Estimated
Sat 11:05:00 PM -9.3051 -58.2729 329° Northwest  Level Estimated
Sat 11:06:00 PM -9.1975 -58.3381 329° Northwest  Level Estimated
Sat 11:07:00 PM -9.0898 -58.4033 329° Northwest  Level Estimated
Sat 11:08:00 PM -8.9821 -58.4684 329° Northwest  Level Estimated
Sat 11:09:00 PM -8.8744 -58.5335 329° Northwest  Level Estimated
Sat 11:10:00 PM -8.7668 -58.5986 329° Northwest  Level Estimated
Sat 11:11:00 PM -8.6591 -58.6636 329° Northwest  Level Estimated
Sat 11:12:00 PM -8.5513 -58.7286 329° Northwest  Level Estimated
Sat 11:13:00 PM -8.4436 -58.7935 329° Northwest  Level Estimated
Sat 11:14:00 PM -8.3359 -58.8584 329° Northwest  Level Estimated
Sat 11:15:00 PM -8.2281 -58.9233 329° Northwest  Level Estimated
Sat 11:16:00 PM -8.1204 -58.9881 329° Northwest  Level Estimated
Sat 11:17:00 PM -8.0126 -59.0529 329° Northwest  Level Estimated
Sat 11:18:00 PM -7.9048 -59.1177 329° Northwest  Level Estimated
Sat 11:19:00 PM -7.7970 -59.1824 329° Northwest  Level Estimated
Sat 11:20:00 PM -7.6892 -59.2471 329° Northwest  Level Estimated
Sat 11:21:00 PM -7.5814 -59.3118 329° Northwest  Level Estimated
Sat 11:22:00 PM -7.4736 -59.3764 329° Northwest  Level Estimated
Sat 11:23:00 PM -7.3658 -59.4410 329° Northwest  Level Estimated
Sat 11:24:00 PM -7.2579 -59.5056 329° Northwest  Level Estimated
Sat 11:25:00 PM -7.1501 -59.5701 329° Northwest  Level Estimated
Sat 11:26:00 PM -7.0422 -59.6347 329° Northwest  Level Estimated
Sat 11:27:00 PM -6.9344 -59.6991 329° Northwest  Level Estimated
Sat 11:28:00 PM -6.8265 -59.7636 329° Northwest  Level Estimated
Sat 11:29:00 PM -6.7186 -59.8280 329° Northwest  Level Estimated
Sat 11:30:00 PM -6.6107 -59.8924 329° Northwest  Level Estimated
Sat 11:31:00 PM -6.5028 -59.9568 329° Northwest  Level Estimated
Sat 11:32:00 PM -6.3949 -60.0211 329° Northwest  Level Estimated
Sat 11:33:00 PM -6.2870 -60.0854 329° Northwest  Level Estimated
Sat 11:34:00 PM -6.1791 -60.1497 329° Northwest  Level Estimated
Sat 11:35:00 PM -6.0712 -60.2140 329° Northwest  Level Estimated
Sat 11:36:00 PM -5.9632 -60.2782 329° Northwest  Level Estimated
Sat 11:37:00 PM -5.8553 -60.3424 329° Northwest  Level Estimated
Sat 11:38:00 PM -5.7474 -60.4066 329° Northwest  Level Estimated
Sat 11:39:00 PM -5.6394 -60.4707 329° Northwest  Level Estimated
Sat 11:40:00 PM -5.5314 -60.5349 329° Northwest  Level Estimated
Sat 11:41:00 PM -5.4235 -60.5990 329° Northwest  Level Estimated
Sat 11:42:00 PM -5.3155 -60.6631 329° Northwest  Level Estimated
Sat 11:43:00 PM -5.2075 -60.7271 329° Northwest  Level Estimated
Sat 11:44:00 PM -5.0997 -60.7910 329° Northwest  Level Estimated
Sat 11:45:00 PM -4.9920 -60.8549 329° Northwest  Level Estimated
Sat 11:46:00 PM -4.8842 -60.9188 329° Northwest  Level Estimated
Sat 11:47:00 PM -4.7764 -60.9827 329° Northwest  Level Estimated
Sat 11:48:00 PM -4.6686 -61.0465 329° Northwest  Level Estimated
Sat 11:49:00 PM -4.5608 -61.1103 329° Northwest  Level Estimated
Sat 11:50:00 PM -4.4530 -61.1741 329° Northwest  Level Estimated
Sat 11:51:00 PM -4.3452 -61.2379 329° Northwest  Level Estimated
Sat 11:52:00 PM -4.2374 -61.3016 329° Northwest  Level Estimated
Sat 11:53:00 PM -4.1296 -61.3653 329° Northwest  Level Estimated
Sat 11:54:00 PM -4.0217 -61.4291 329° Northwest  Level Estimated
Sat 11:55:00 PM -3.9139 -61.4927 329° Northwest  Level Estimated
Sat 11:56:00 PM -3.8061 -61.5564 329° Northwest  Level Estimated
Sat 11:57:00 PM -3.6983 -61.6201 329° Northwest  Level Estimated
Sat 11:58:00 PM -3.5904 -61.6838 329° Northwest  Level Estimated
Sat 11:59:00 PM -3.4826 -61.7474 330° Northwest  Level Estimated
Sun 12:00:00 AM -3.3747 -61.8110 330° Northwest  Level Estimated
Sun 12:01:00 AM -3.2669 -61.8746 330° Northwest  Level Estimated
Sun 12:02:00 AM -3.1590 -61.9382 330° Northwest  Level Estimated
Sun 12:03:00 AM -3.0511 -62.0018 330° Northwest  Level Estimated
Sun 12:04:00 AM -2.9433 -62.0654 330° Northwest  Level Estimated
Sun 12:05:00 AM -2.8354 -62.1289 330° Northwest  Level Estimated
Sun 12:06:00 AM -2.7275 -62.1925 330° Northwest  Level Estimated
Sun 12:07:00 AM -2.6196 -62.2560 330° Northwest  Level Estimated
Sun 12:08:00 AM -2.5118 -62.3195 330° Northwest  Level Estimated
Sun 12:09:00 AM -2.4039 -62.3830 330° Northwest  Level Estimated
Sun 12:10:00 AM -2.2960 -62.4465 330° Northwest  Level Estimated
Sun 12:11:00 AM -2.1881 -62.5100 330° Northwest  Level Estimated
Sun 12:12:00 AM -2.0802 -62.5735 330° Northwest  Level Estimated
Sun 12:13:00 AM -1.9723 -62.6370 330° Northwest  Level Estimated
Sun 12:14:00 AM -1.8644 -62.7004 330° Northwest  Level Estimated
Sun 12:15:00 AM -1.7565 -62.7639 330° Northwest  Level Estimated
Sun 12:16:00 AM -1.6486 -62.8273 330° Northwest  Level Estimated
Sun 12:17:00 AM -1.5407 -62.8908 330° Northwest  Level Estimated
Sun 12:18:00 AM -1.4328 -62.9542 330° Northwest  Level Estimated
Sun 12:19:00 AM -1.3249 -63.0176 330° Northwest  Level Estimated
Sun 12:20:00 AM -1.2170 -63.0811 330° Northwest  Level Estimated
Sun 12:21:00 AM -1.1091 -63.1445 330° Northwest  Level Estimated
Sun 12:22:00 AM -1.0012 -63.2079 330° Northwest  Level Estimated
Sun 12:23:00 AM -0.8933 -63.2713 330° Northwest  Level Estimated
Sun 12:24:00 AM -0.7854 -63.3347 330° Northwest  Level Estimated
Sun 12:25:00 AM -0.6775 -63.3981 330° Northwest  Level Estimated
Sun 12:26:00 AM -0.5695 -63.4615 330° Northwest  Level Estimated
Sun 12:27:00 AM -0.4616 -63.5249 330° Northwest  Level Estimated
Sun 12:28:00 AM -0.3537 -63.5883 330° Northwest  Level Estimated
Sun 12:29:00 AM -0.2458 -63.6517 330° Northwest  Level Estimated
Sun 12:30:00 AM -0.1379 -63.7151 330° Northwest  Level Estimated
Sun 12:31:00 AM -0.0300 -63.7785 330° Northwest  Level Estimated
Sun 12:32:00 AM 0.0780 -63.8419 330° Northwest  Level Estimated
Sun 12:33:00 AM 0.1859 -63.9053 330° Northwest  Level Estimated
Sun 12:34:00 AM 0.2938 -63.9687 330° Northwest  Level Estimated
Sun 12:35:00 AM 0.4020 -64.0322 330° Northwest  Level Estimated
Sun 12:36:00 AM 0.5101 -64.0957 330° Northwest  Level Estimated
Sun 12:37:00 AM 0.6182 -64.1592 330° Northwest  Level Estimated
Sun 12:38:00 AM 0.7264 -64.2228 330° Northwest  Level Estimated
Sun 12:39:00 AM 0.8345 -64.2863 330° Northwest  Level Estimated
Sun 12:40:00 AM 0.9427 -64.3499 330° Northwest  Level Estimated
Sun 12:41:00 AM 1.0508 -64.4134 330° Northwest  Level Estimated
Sun 12:42:00 AM 1.1589 -64.4770 330° Northwest  Level Estimated
Sun 12:43:00 AM 1.2671 -64.5405 330° Northwest  Level Estimated
Sun 12:44:00 AM 1.3752 -64.6041 330° Northwest  Level Estimated
Sun 12:45:00 AM 1.4833 -64.6676 330° Northwest  Level Estimated
Sun 12:46:00 AM 1.5914 -64.7312 330° Northwest  Level Estimated
Sun 12:47:00 AM 1.6996 -64.7948 330° Northwest  Level Estimated
Sun 12:48:00 AM 1.8077 -64.8584 330° Northwest  Level Estimated
Sun 12:49:00 AM 1.9158 -64.9220 330° Northwest  Level Estimated
Sun 12:50:00 AM 2.0240 -64.9856 330° Northwest  Level Estimated
Sun 12:51:00 AM 2.1321 -65.0492 330° Northwest  Level Estimated
Sun 12:52:00 AM 2.2402 -65.1128 330° Northwest  Level Estimated
Sun 12:53:00 AM 2.3483 -65.1764 330° Northwest  Level Estimated
Sun 12:54:00 AM 2.4564 -65.2401 330° Northwest  Level Estimated
Sun 12:55:00 AM 2.5645 -65.3037 330° Northwest  Level Estimated
Sun 12:56:00 AM 2.6726 -65.3674 330° Northwest  Level Estimated
Sun 12:57:00 AM 2.7807 -65.4311 330° Northwest  Level Estimated
Sun 12:58:00 AM 2.8888 -65.4947 330° Northwest  Level Estimated
Sun 12:59:00 AM 2.9969 -65.5584 330° Northwest  Level Estimated
Sun 01:00:00 AM 3.1050 -65.6221 330° Northwest  Level Estimated
Sun 01:01:00 AM 3.2131 -65.6859 330° Northwest  Level Estimated
Sun 01:02:00 AM 3.3212 -65.7496 330° Northwest  Level Estimated
Sun 01:03:00 AM 3.4293 -65.8133 330° Northwest  Level Estimated
Sun 01:04:00 AM 3.5373 -65.8771 330° Northwest  Level Estimated
Sun 01:05:00 AM 3.6454 -65.9409 330° Northwest  Level Estimated
Sun 01:06:00 AM 3.7534 -66.0047 330° Northwest  Level Estimated
Sun 01:07:00 AM 3.8615 -66.0685 329° Northwest  Level Estimated
Sun 01:08:00 AM 3.9696 -66.1323 329° Northwest  Level Estimated
Sun 01:09:00 AM 4.0776 -66.1961 329° Northwest  Level Estimated
Sun 01:10:00 AM 4.1857 -66.2600 329° Northwest  Level Estimated
Sun 01:11:00 AM 4.2937 -66.3239 329° Northwest  Level Estimated
Sun 01:12:00 AM 4.4017 -66.3878 329° Northwest  Level Estimated
Sun 01:13:00 AM 4.5098 -66.4517 329° Northwest  Level Estimated
Sun 01:14:00 AM 4.6178 -66.5156 329° Northwest  Level Estimated
Sun 01:15:00 AM 4.7258 -66.5796 329° Northwest  Level Estimated
Sun 01:16:00 AM 4.8338 -66.6435 329° Northwest  Level Estimated
Sun 01:17:00 AM 4.9416 -66.7074 329° Northwest  Level Estimated
Sun 01:18:00 AM 5.0494 -66.7713 329° Northwest  Level Estimated
Sun 01:19:00 AM 5.1571 -66.8352 329° Northwest  Level Estimated
Sun 01:20:00 AM 5.2649 -66.8991 329° Northwest  Level Estimated
Sun 01:21:00 AM 5.3727 -66.9630 329° Northwest  Level Estimated
Sun 01:22:00 AM 5.4804 -67.0270 329° Northwest  Level Estimated
Sun 01:23:00 AM 5.5882 -67.0910 329° Northwest  Level Estimated
Sun 01:24:00 AM 5.6959 -67.1550 329° Northwest  Level Estimated
Sun 01:25:00 AM 5.8036 -67.2190 329° Northwest  Level Estimated
Sun 01:26:00 AM 5.9113 -67.2831 329° Northwest  Level Estimated
Sun 01:27:00 AM 6.0190 -67.3472 329° Northwest  Level Estimated
Sun 01:28:00 AM 6.1267 -67.4113 329° Northwest  Level Estimated
Sun 01:29:00 AM 6.2344 -67.4754 329° Northwest  Level Estimated
Sun 01:30:00 AM 6.3421 -67.5396 329° Northwest  Level Estimated
Sun 01:31:00 AM 6.4498 -67.6038 329° Northwest  Level Estimated
Sun 01:32:00 AM 6.5575 -67.6680 329° Northwest  Level Estimated
Sun 01:33:00 AM 6.6652 -67.7322 329° Northwest  Level Estimated
Sun 01:34:00 AM 6.7728 -67.7965 329° Northwest  Level Estimated
Sun 01:35:00 AM 6.8805 -67.8608 329° Northwest  Level Estimated
Sun 01:36:00 AM 6.9881 -67.9251 329° Northwest  Level Estimated
Sun 01:37:00 AM 7.0957 -67.9895 329° Northwest  Level Estimated
Sun 01:38:00 AM 7.2034 -68.0539 329° Northwest  Level Estimated
Sun 01:39:00 AM 7.3110 -68.1183 329° Northwest  Level Estimated
Sun 01:40:00 AM 7.4186 -68.1828 329° Northwest  Level Estimated
Sun 01:41:00 AM 7.5262 -68.2472 329° Northwest  Level Estimated
Sun 01:42:00 AM 7.6338 -68.3118 329° Northwest  Level Estimated
Sun 01:43:00 AM 7.7414 -68.3763 329° Northwest  Level Estimated
Sun 01:44:00 AM 7.8489 -68.4409 329° Northwest  Level Estimated
Sun 01:45:00 AM 7.9565 -68.5055 329° Northwest  Level Estimated
Sun 01:46:00 AM 8.0640 -68.5702 329° Northwest  Level Estimated
Sun 01:47:00 AM 8.1716 -68.6348 329° Northwest  Level Estimated
Sun 01:48:00 AM 8.2791 -68.6995 329° Northwest  Level Estimated
Sun 01:49:00 AM 8.3866 -68.7643 329° Northwest  Level Estimated
Sun 01:50:00 AM 8.4941 -68.8291 329° Northwest  Level Estimated
Sun 01:51:00 AM 8.6016 -68.8939 329° Northwest  Level Estimated
Sun 01:52:00 AM 8.7091 -68.9588 329° Northwest  Level Estimated
Sun 01:53:00 AM 8.8166 -69.0237 329° Northwest  Level Estimated
Sun 01:54:00 AM 8.9240 -69.0886 329° Northwest  Level Estimated
Sun 01:55:00 AM 9.0315 -69.1536 329° Northwest  Level Estimated
Sun 01:56:00 AM 9.1389 -69.2186 329° Northwest  Level Estimated
Sun 01:57:00 AM 9.2464 -69.2837 329° Northwest  Level Estimated
Sun 01:58:00 AM 9.3538 -69.3487 329° Northwest  Level Estimated
Sun 01:59:00 AM 9.4612 -69.4139 329° Northwest  Level Estimated
Sun 02:00:00 AM 9.5686 -69.4790 329° Northwest  Level Estimated
Sun 02:01:00 AM 9.6760 -69.5443 329° Northwest  Level Estimated
Sun 02:02:00 AM 9.7833 -69.6095 329° Northwest  Level Estimated
Sun 02:03:00 AM 9.8909 -69.6750 329° Northwest  Level Estimated
Sun 02:04:00 AM 9.9985 -69.7404 329° Northwest  Level Estimated
Sun 02:05:00 AM 10.1060 -69.8060 329° Northwest  Level Estimated
Sun 02:06:00 AM 10.2136 -69.8715 329° Northwest  Level Estimated
Sun 02:07:00 AM 10.3211 -69.9371 329° Northwest  Level Estimated
Sun 02:08:00 AM 10.4286 -70.0028 329° Northwest  Level Estimated
Sun 02:09:00 AM 10.5361 -70.0685 329° Northwest  Level Estimated
Sun 02:10:00 AM 10.6436 -70.1343 329° Northwest  Level Estimated
Sun 02:11:00 AM 10.7511 -70.2001 329° Northwest  Level Estimated
Sun 02:12:00 AM 10.8585 -70.2659 329° Northwest  Level Estimated
Sun 02:13:00 AM 10.9660 -70.3318 329° Northwest  Level Estimated
Sun 02:14:00 AM 11.0734 -70.3977 329° Northwest  Level Estimated
Sun 02:15:00 AM 11.1808 -70.4637 329° Northwest  Level Estimated
Sun 02:16:00 AM 11.2882 -70.5297 329° Northwest  Level Estimated
Sun 02:17:00 AM 11.3956 -70.5958 329° Northwest  Level Estimated
Sun 02:18:00 AM 11.5030 -70.6619 329° Northwest  Level Estimated
Sun 02:19:00 AM 11.6103 -70.7281 329° Northwest  Level Estimated
Sun 02:20:00 AM 11.7177 -70.7943 329° Northwest  Level Estimated
Sun 02:21:00 AM 11.8250 -70.8606 329° Northwest  Level Estimated
Sun 02:22:00 AM 11.9323 -70.9270 329° Northwest  Level Estimated
Sun 02:23:00 AM 12.0396 -70.9934 329° Northwest  Level Estimated
Sun 02:24:00 AM 12.1469 -71.0598 329° Northwest  Level Estimated
Sun 02:25:00 AM 12.2542 -71.1263 329° Northwest  Level Estimated
Sun 02:26:00 AM 12.3614 -71.1929 329° Northwest  Level Estimated
Sun 02:27:00 AM 12.4687 -71.2595 329° Northwest  Level Estimated
Sun 02:28:00 AM 12.5759 -71.3261 329° Northwest  Level Estimated
Sun 02:29:00 AM 12.6831 -71.3928 329° Northwest  Level Estimated
Sun 02:30:00 AM 12.7903 -71.4596 329° Northwest  Level Estimated
Sun 02:31:00 AM 12.8974 -71.5264 329° Northwest  Level Estimated
Sun 02:32:00 AM 13.0046 -71.5933 329° Northwest  Level Estimated
Sun 02:33:00 AM 13.1117 -71.6603 329° Northwest  Level Estimated
Sun 02:34:00 AM 13.2188 -71.7273 329° Northwest  Level Estimated
Sun 02:35:00 AM 13.3259 -71.7943 329° Northwest  Level Estimated
Sun 02:36:00 AM 13.4330 -71.8615 329° Northwest  Level Estimated
Sun 02:37:00 AM 13.5401 -71.9286 329° Northwest  Level Estimated
Sun 02:38:00 AM 13.6471 -71.9959 329° Northwest  Level Estimated
Sun 02:39:00 AM 13.7542 -72.0632 329° Northwest  Level Estimated
Sun 02:40:00 AM 13.8612 -72.1305 329° Northwest  Level Estimated
Sun 02:41:00 AM 13.9682 -72.1980 329° Northwest  Level Estimated
Sun 02:42:00 AM 14.0751 -72.2654 329° Northwest  Level Estimated
Sun 02:43:00 AM 14.1821 -72.3330 329° Northwest  Level Estimated
Sun 02:44:00 AM 14.2890 -72.4006 329° Northwest  Level Estimated
Sun 02:45:00 AM 14.3959 -72.4683 328° Northwest  Level Estimated
Sun 02:46:00 AM 14.5028 -72.5360 328° Northwest  Level Estimated
Sun 02:47:00 AM 14.6097 -72.6039 328° Northwest  Level Estimated
Sun 02:48:00 AM 14.7166 -72.6717 328° Northwest  Level Estimated
Sun 02:49:00 AM 14.8234 -72.7397 328° Northwest  Level Estimated
Sun 02:50:00 AM 14.9302 -72.8077 328° Northwest  Level Estimated
Sun 02:51:00 AM 15.0370 -72.8758 328° Northwest  Level Estimated
Sun 02:52:00 AM 15.1438 -72.9439 328° Northwest  Level Estimated
Sun 02:53:00 AM 15.2506 -73.0121 328° Northwest  Level Estimated
Sun 02:54:00 AM 15.3573 -73.0804 328° Northwest  Level Estimated
Sun 02:55:00 AM 15.4640 -73.1488 328° Northwest  Level Estimated
Sun 02:56:00 AM 15.5707 -73.2172 328° Northwest  Level Estimated
Sun 02:57:00 AM 15.6774 -73.2857 328° Northwest  Level Estimated
Sun 02:58:00 AM 15.7840 -73.3542 328° Northwest  Level Estimated
Sun 02:59:00 AM 15.8907 -73.4229 328° Northwest  Level Estimated
Sun 03:00:00 AM 15.9973 -73.4916 328° Northwest  Level Estimated
Sun 03:01:00 AM 16.1039 -73.5604 328° Northwest  Level Estimated
Sun 03:02:00 AM 16.2104 -73.6292 328° Northwest  Level Estimated
Sun 03:03:00 AM 16.3170 -73.6982 328° Northwest  Level Estimated
Sun 03:04:00 AM 16.4235 -73.7672 328° Northwest  Level Estimated
Sun 03:05:00 AM 16.5300 -73.8362 328° Northwest  Level Estimated
Sun 03:06:00 AM 16.6365 -73.9054 328° Northwest  Level Estimated
Sun 03:07:00 AM 16.7429 -73.9746 328° Northwest  Level Estimated
Sun 03:08:00 AM 16.8494 -74.0440 328° Northwest  Level Estimated
Sun 03:09:00 AM 16.9558 -74.1133 328° Northwest  Level Estimated
Sun 03:10:00 AM 17.0624 -74.1830 328° Northwest  Level Estimated
Sun 03:11:00 AM 17.1690 -74.2527 328° Northwest  Level Estimated
Sun 03:12:00 AM 17.2755 -74.3224 328° Northwest  Level Estimated
Sun 03:13:00 AM 17.3821 -74.3923 328° Northwest  Level Estimated
Sun 03:14:00 AM 17.4886 -74.4622 328° Northwest  Level Estimated
Sun 03:15:00 AM 17.5951 -74.5323 328° Northwest  Level Estimated
Sun 03:16:00 AM 17.7015 -74.6024 328° Northwest  Level Estimated
Sun 03:17:00 AM 17.8080 -74.6725 328° Northwest  Level Estimated
Sun 03:18:00 AM 17.9144 -74.7428 328° Northwest  Level Estimated
Sun 03:19:00 AM 18.0208 -74.8132 328° Northwest  Level Estimated
Sun 03:20:00 AM 18.1271 -74.8836 328° Northwest  Level Estimated
Sun 03:21:00 AM 18.2334 -74.9541 328° Northwest  Level Estimated
Sun 03:22:00 AM 18.3398 -75.0247 328° Northwest  Level Estimated
Sun 03:23:00 AM 18.4460 -75.0955 328° Northwest  Level Estimated
Sun 03:24:00 AM 18.5523 -75.1662 328° Northwest  Level Estimated
Sun 03:25:00 AM 18.6585 -75.2371 328° Northwest  Level Estimated
Sun 03:26:00 AM 18.7647 -75.3081 328° Northwest  Level Estimated
Sun 03:27:00 AM 18.8709 -75.3791 328° Northwest  Level Estimated
Sun 03:28:00 AM 18.9771 -75.4503 328° Northwest  Level Estimated
Sun 03:29:00 AM 19.0832 -75.5215 328° Northwest  Level Estimated
Sun 03:30:00 AM 19.1893 -75.5928 328° Northwest  Level Estimated
Sun 03:31:00 AM 19.2953 -75.6642 328° Northwest  Level Estimated
Sun 03:32:00 AM 19.4014 -75.7357 328° Northwest  Level Estimated
Sun 03:33:00 AM 19.5074 -75.8073 328° Northwest  Level Estimated
Sun 03:34:00 AM 19.6134 -75.8790 327° Northwest  Level Estimated
Sun 03:35:00 AM 19.7193 -75.9508 327° Northwest  Level Estimated
Sun 03:36:00 AM 19.8253 -76.0227 327° Northwest  Level Estimated
Sun 03:37:00 AM 19.9312 -76.0947 327° Northwest  Level Estimated
Sun 03:38:00 AM 20.0370 -76.1668 327° Northwest  Level Estimated
Sun 03:39:00 AM 20.1429 -76.2390 327° Northwest  Level Estimated
Sun 03:40:00 AM 20.2487 -76.3112 327° Northwest  Level Estimated
Sun 03:41:00 AM 20.3545 -76.3836 327° Northwest  Level Estimated
Sun 03:42:00 AM 20.4602 -76.4561 327° Northwest  Level Estimated
Sun 03:43:00 AM 20.5659 -76.5286 327° Northwest  Level Estimated
Sun 03:44:00 AM 20.6716 -76.6013 327° Northwest  Level Estimated
Sun 03:45:00 AM 20.7773 -76.6741 327° Northwest  Level Estimated
Sun 03:46:00 AM 20.8829 -76.7470 327° Northwest  Level Estimated
Sun 03:47:00 AM 20.9885 -76.8199 327° Northwest  Level Estimated
Sun 03:48:00 AM 21.0941 -76.8930 327° Northwest  Level Estimated
Sun 03:48:09 AM 22.5178 -77.5403 327° Northwest 470 541 40,000  Level Miami Center
Sun 03:49:00 AM 21.1996 -76.9662 327° Northwest  Level Estimated
Sun 03:49:09 AM 22.6136 -77.5994 330° Northwest 434 499 40,000  Level Miami Center
Sun 03:50:00 AM 21.3051 -77.0395 327° Northwest  Level Estimated
Sun 03:50:12 AM 22.7197 -77.6653 330° Northwest 420 483 40,000  Level Miami Center
Sun 03:51:00 AM 21.4106 -77.1129 327° Northwest  Level Estimated
Sun 03:51:11 AM 22.8197 -77.7244 331° Northwest 420 483 40,000  Level Miami Center
Sun 03:52:00 AM 21.5136 -77.1847 327° Northwest  Level Estimated
Sun 03:52:10 AM 22.9092 -77.7903 326° Northwest 420 483 40,000  Level Miami Center
Sun 03:53:00 AM 21.6166 -77.2566 327° Northwest  Level Estimated
Sun 03:53:09 AM 23.0092 -77.8475 332° Northwest 415 478 40,000  Level Miami Center
Sun 03:54:12 AM 23.1111 -77.9047 333° Northwest 415 478 40,000  Level Miami Center
Sun 03:55:10 AM 23.2214 -77.9758 329° Northwest 415 478 40,000  Level Miami Center
Sun 03:56:10 AM 23.3233 -78.0444 328° Northwest 422 486 40,000  Level Miami Center
Sun 03:57:09 AM 23.4231 -78.0997 333° Northwest 417 480 40,000  Level Miami Center
Sun 03:58:11 AM 23.5250 -78.1642 330° Northwest 417 480 40,000  Level Miami Center
Sun 03:59:09 AM 23.6267 -78.2286 330° Northwest 424 488 40,000 -30 Level Miami Center
Sun 04:04:57 AM 24.1920 -78.6320 330° Northwest 415 478 39,800 -357 Descending FlightAware ADS-B
Sun 04:05:52 AM 24.2700 -78.7020 321° Northwest 416 479 37,600 -2,612 Descending FlightAware ADS-B
Sun 04:06:22 AM 24.3160 -78.7440 320° Northwest 423 487 36,100 -2,800 Descending FlightAware ADS-B
Sun 04:07:07 AM 24.3860 -78.8070 321° Northwest 428 493 34,100 -2,504 Descending FlightAware ADS-B
Sun 04:08:17 AM 24.4980 -78.9090 320° Northwest 440 506 31,300 -2,359 Descending FlightAware ADS-B
Sun 04:09:32 AM 24.6140 -79.0150 320° Northwest 422 486 28,400 -2,276 Descending FlightAware ADS-B
Sun 04:10:42 AM 24.7200 -79.1110 321° Northwest 421 484 25,800 -2,229 Descending FlightAware ADS-B
Sun 04:11:52 AM 24.8250 -79.2070 320° Northwest 415 478 23,200 -2,129 Descending FlightAware ADS-B
Sun 04:13:17 AM 24.9420 -79.3140 320° Northwest 402 463 20,300 -2,087 Descending FlightAware ADS-B
Sun 04:13:47 AM 24.9860 -79.3550 320° Northwest 397 457 19,200 -2,200 Descending FlightAware ADS-B
Sun 04:14:17 AM 25.0290 -79.3940 321° Northwest 387 445 18,100 -2,143 Descending FlightAware ADS-B
Sun 04:14:57 AM 25.0840 -79.4450 320° Northwest 380 437 16,700 -2,000 Descending FlightAware ADS-B
Sun 04:15:47 AM 25.1510 -79.5060 321° Northwest 374 430 15,100 -1,958 Descending FlightAware ADS-B
Sun 04:16:32 AM 25.2110 -79.5610 320° Northwest 362 417 13,600 -1,976 Descending FlightAware ADS-B
Sun 04:17:12 AM 25.2610 -79.6070 320° Northwest 353 406 12,300 -1,920 Descending FlightAware ADS-B
Sun 04:17:47 AM 25.3050 -79.6480 320° Northwest 341 392 11,200 -1,754 Descending FlightAware ADS-B
Sun 04:18:17 AM 25.3410 -79.6820 320° Northwest 341 392 10,400 -1,108 Descending FlightAware ADS-B
Sun 04:18:52 AM 25.3820 -79.7200 320° Northwest 309 356 10,000 -500 Descending FlightAware ADS-B
Sun 04:19:17 AM 25.4060 -79.7470 315° West 285 328 9,900 -300 Descending FlightAware ADS-B
Sun 04:19:32 AM 25.4220 -79.7610 322° Northwest 275 316 9,800 -750 Descending FlightAware ADS-B
Sun 04:19:57 AM 25.4470 -79.7840 320° Northwest 275 316 9,400 -1,067 Descending FlightAware ADS-B
Sun 04:20:17 AM 25.4670 -79.8020 321° Northwest 273 314 9,000 -1,320 Descending FlightAware ADS-B
Sun 04:20:47 AM 25.4970 -79.8270 323° Northwest 272 313 8,300 -1,200 Descending FlightAware ADS-B
Sun 04:21:12 AM 25.5210 -79.8490 320° Northwest 266 306 7,900 -933 Descending FlightAware ADS-B
Sun 04:21:32 AM 25.5410 -79.8660 323° Northwest 255 293 7,600 -900 Descending FlightAware ADS-B
Sun 04:21:52 AM 25.5590 -79.8820 321° Northwest 270 311 7,300 -1,050 Descending FlightAware ADS-B
Sun 04:22:12 AM 25.5800 -79.9000 322° Northwest 269 310 6,900 -1,080 Descending FlightAware ADS-B
Sun 04:22:42 AM 25.6100 -79.9260 322° Northwest 273 314 6,400 -1,091 Descending FlightAware ADS-B
Sun 04:23:07 AM 25.6340 -79.9470 322° Northwest 267 307 5,900 -982 Descending FlightAware ADS-B
Sun 04:23:37 AM 25.6630 -79.9720 322° Northwest 254 292 5,500 -933 Descending FlightAware ADS-B
Sun 04:23:52 AM 25.6780 -79.9860 320° Northwest 251 289 5,200 -1,029 Descending FlightAware ADS-B
Sun 04:24:12 AM 25.6950 -80.0010 322° Northwest 252 290 4,900 -933 Descending FlightAware ADS-B
Sun 04:24:37 AM 25.7180 -80.0210 322° Northwest 251 289 4,500 -960 Descending FlightAware ADS-B
Sun 04:25:02 AM 25.7420 -80.0420 322° Northwest 253 291 4,100 -1,000 Descending FlightAware ADS-B
Sun 04:25:07 AM 25.7470 -80.0460 324° Northwest 251 289 4,000 -960 Descending FlightAware ADS-B
Sun 04:25:52 AM 25.7880 -80.0820 322° Northwest 246 283 3,300 -1,114 Descending FlightAware ADS-B
Sun 04:26:17 AM 25.8060 -80.1070 309° West 236 272 2,700 -1,350 Descending FlightAware ADS-B
Sun 04:26:32 AM 25.8070 -80.1240 274° West 229 264 2,400 -1,200 Descending FlightAware ADS-B
Sun 04:27:02 AM 25.8060 -80.1600 268° West 202 232 1,800 -1,200 Descending FlightAware ADS-B
Sun 04:27:27 AM 25.8050 -80.1870 268° West 191 220 1,300 -900 Descending FlightAware ADS-B
Sun 04:28:02 AM 25.8040 -80.2160 268° West 154 177 900 -700 Descending FlightAware ADS-B
Sun 04:28:27 AM 25.8030 -80.2360 267° West 143 165 600 -720 Descending FlightAware ADS-B
Sun 04:28:52 AM 25.8030 -80.2530 270° West 143 165 300 -720 Descending FlightAware ADS-B
Sun 04:29:17 AM 25.8020 -80.2720 267° West 140 161 -720 Descending FlightAware ADS-B

Login

Don't have an account? Register now (free) for customized features, flight alerts, and more!